Bennington, Indiana
Current Conditions -  °F | °C
As of 4:52 PM on Thursday 27 Nov 2014 (Local Time) from KCVG Reporting Station
Overcast Overcast  
Wind Chill: 21°   Ceiling: 2700
Heat Index: 31°   Visibility: 7mi
Dew Point: 21°   Wind: 14mph
Humidity: 67%   Direction: 270°W
Pressure: 30.32"   Gusts: NA
Location:  38.86°N, 85.14°W
Report Text: KCVG 272152Z 27012KT 7SM OVC027 M01/M06 A3032 RMK AO2 SLP274 T10061061
Loading
Personal Weather Stations






























Interactive Weather Map New forecast layout! Learn more

10-Day Weather Forecast

Advertisements
Track Severe Weather on mobile